Time;durP1;ratioP1;P1;durP2;ratioP2;P2;SDS_P1;SDS_P2;PMS_P1;PMS_P2;Temp;Humidity;BMP_temperature;BMP_pressure;BME280_temperature;BME280_humidity;BME280_pressure;Samples;Min_cycle;Max_cycle;Signal;HPM_P1;HPM_P2
2023/07/01 00:02:04;;;;;;;13.57;7.93;;;;;;;;;;5044911;28;20056;-86
2023/07/01 00:04:29;;;;;;;13.15;8.05;;;;;;;;;;5078352;22;20056;-76
2023/07/01 00:06:55;;;;;;;12.43;7.90;;;;;;;;;;5072070;28;20039;-77
2023/07/01 00:09:21;;;;;;;13.80;8.23;;;;;;;;;;5071871;28;20031;-78
2023/07/01 00:11:47;;;;;;;11.85;8.10;;;;;;;;;;5054621;28;20541;-75
2023/07/01 00:14:12;;;;;;;14.52;7.90;;;;;;;;;;5072459;28;20017;-76
2023/07/01 00:16:39;;;;;;;14.32;7.53;;;;;;;;;;5072768;28;20036;-76
2023/07/01 00:19:05;;;;;;;13.68;7.35;;;;;;;;;;5072456;28;20035;-77
2023/07/01 00:21:31;;;;;;;12.88;8.10;;;;;;;;;;5072325;28;20028;-76
2023/07/01 00:23:56;;;;;;;12.80;7.85;;;;;;;;;;5072807;28;20037;-75
2023/07/01 00:26:22;;;;;;;12.30;7.50;;;;;;;;;;5072688;28;20495;-77
2023/07/01 00:28:48;;;;;;;13.27;8.25;;;;;;;;;;5070785;28;20033;-77
2023/07/01 00:31:13;;;;;;;10.93;7.25;;;;;;;;;;5071541;28;20495;-77
2023/07/01 00:33:39;;;;;;;11.48;7.78;;;;;;;;;;5071617;28;20076;-76
2023/07/01 00:36:04;;;;;;;11.60;7.60;;;;;;;;;;5071684;28;20028;-77
2023/07/01 00:38:30;;;;;;;15.10;8.15;;;;;;;;;;5054185;28;20598;-76
2023/07/01 00:40:55;;;;;;;14.23;7.95;;;;;;;;;;5070300;28;20032;-76
2023/07/01 00:43:21;;;;;;;14.57;7.30;;;;;;;;;;5071974;28;20020;-75
2023/07/01 00:45:46;;;;;;;12.85;7.63;;;;;;;;;;5037552;28;20036;-77
2023/07/01 00:48:21;;;;;;;17.95;7.43;;;;;;;;;;5071881;28;20476;-77
2023/07/01 00:50:46;;;;;;;17.38;8.05;;;;;;;;;;5070255;28;20040;-78
2023/07/01 00:53:12;;;;;;;15.15;8.10;;;;;;;;;;5072153;28;20024;-77
2023/07/01 00:55:37;;;;;;;15.93;7.68;;;;;;;;;;5054719;28;20067;-78
2023/07/01 00:58:03;;;;;;;19.65;8.63;;;;;;;;;;5054308;28;20025;-76
2023/07/01 01:00:28;;;;;;;17.15;7.68;;;;;;;;;;5071675;28;20056;-78
2023/07/01 01:02:55;;;;;;;16.35;8.35;;;;;;;;;;5072045;28;20083;-78
2023/07/01 01:05:31;;;;;;;20.83;8.45;;;;;;;;;;5073042;28;20265;-76
2023/07/01 01:08:03;;;;;;;18.65;7.78;;;;;;;;;;5076554;28;20058;-76
2023/07/01 01:10:31;;;;;;;21.80;7.80;;;;;;;;;;5058460;28;20036;-78
2023/07/01 01:12:57;;;;;;;18.90;8.10;;;;;;;;;;5076776;28;20111;-76
2023/07/01 01:15:24;;;;;;;19.15;7.47;;;;;;;;;;5076034;28;20028;-77
2023/07/01 01:17:51;;;;;;;16.10;7.82;;;;;;;;;;5076745;28;20025;-77
2023/07/01 01:20:20;;;;;;;12.13;6.50;;;;;;;;;;5075230;28;20100;-77
2023/07/01 01:22:48;;;;;;;15.88;6.93;;;;;;;;;;5074546;28;20036;-77
2023/07/01 01:25:18;;;;;;;18.63;7.25;;;;;;;;;;5074419;28;20051;-76
2023/07/01 01:27:43;;;;;;;24.77;7.93;;;;;;;;;;5057504;28;20084;-77
2023/07/01 01:30:09;;;;;;;21.02;7.50;;;;;;;;;;5074120;28;20463;-76
2023/07/01 01:32:35;;;;;;;21.35;7.85;;;;;;;;;;5073807;28;20131;-77
2023/07/01 01:35:01;;;;;;;18.67;6.85;;;;;;;;;;5074138;28;20032;-76
2023/07/01 01:37:33;;;;;;;18.33;7.15;;;;;;;;;;5075219;28;20449;-77
2023/07/01 01:40:09;;;;;;;23.05;6.72;;;;;;;;;;5073865;28;20472;-78
2023/07/01 01:42:35;;;;;;;13.73;7.32;;;;;;;;;;5073125;28;20086;-77
2023/07/01 01:45:03;;;;;;;15.48;7.70;;;;;;;;;;5075001;28;20033;-76
2023/07/01 01:47:30;;;;;;;22.25;7.40;;;;;;;;;;5073808;28;20032;-78
2023/07/01 01:49:58;;;;;;;19.23;6.72;;;;;;;;;;5074892;28;20502;-77
2023/07/01 01:52:24;;;;;;;22.77;7.18;;;;;;;;;;5073441;28;20082;-76
2023/07/01 01:54:54;;;;;;;18.40;7.22;;;;;;;;;;5074021;28;20024;-76
2023/07/01 01:57:22;;;;;;;16.25;7.25;;;;;;;;;;5073785;28;20052;-76
2023/07/01 01:59:47;;;;;;;22.00;8.35;;;;;;;;;;5073651;28;20032;-77
2023/07/01 02:02:13;;;;;;;17.13;6.90;;;;;;;;;;5073121;28;20025;-76
2023/07/01 02:04:39;;;;;;;15.90;7.35;;;;;;;;;;5074213;28;20032;-76
2023/07/01 02:07:05;;;;;;;23.15;7.57;;;;;;;;;;5056849;28;20530;-77
2023/07/01 02:09:30;;;;;;;20.55;8.05;;;;;;;;;;5040096;28;20036;-77
2023/07/01 02:11:56;;;;;;;17.23;6.93;;;;;;;;;;5073187;28;20036;-76
2023/07/01 02:14:22;;;;;;;21.02;7.35;;;;;;;;;;5074672;28;20400;-77
2023/07/01 02:16:49;;;;;;;20.27;7.85;;;;;;;;;;5074280;28;20025;-76
2023/07/01 02:19:14;;;;;;;17.95;7.47;;;;;;;;;;5058069;28;20123;-76
2023/07/01 02:21:40;;;;;;;24.45;8.93;;;;;;;;;;5041164;28;20064;-75
2023/07/01 02:24:05;;;;;;;14.23;7.85;;;;;;;;;;5076230;28;20059;-76
2023/07/01 02:26:31;;;;;;;23.52;8.10;;;;;;;;;;5059614;28;20028;-77
2023/07/01 02:28:56;;;;;;;19.40;7.80;;;;;;;;;;5059041;28;20037;-77
2023/07/01 02:31:22;;;;;;;19.20;8.75;;;;;;;;;;5075319;28;20060;-77
2023/07/01 02:33:51;;;;;;;19.85;7.35;;;;;;;;;;5058341;28;20028;-76
2023/07/01 02:36:17;;;;;;;18.70;7.85;;;;;;;;;;5075959;28;20060;-76
2023/07/01 02:38:42;;;;;;;21.15;7.45;;;;;;;;;;5075589;28;20040;-76
2023/07/01 02:41:08;;;;;;;21.77;8.10;;;;;;;;;;5073601;28;20489;-76
2023/07/01 02:43:34;;;;;;;14.77;7.50;;;;;;;;;;5074158;28;20067;-77
2023/07/01 02:46:00;;;;;;;21.48;8.60;;;;;;;;;;5040964;28;20468;-77
2023/07/01 02:48:25;;;;;;;21.58;8.25;;;;;;;;;;5040259;28;20033;-78
2023/07/01 02:50:51;;;;;;;26.80;8.77;;;;;;;;;;5073309;28;20480;-75
2023/07/01 02:53:18;;;;;;;13.18;7.75;;;;;;;;;;5057789;28;20101;-75
2023/07/01 02:55:44;;;;;;;23.83;8.00;;;;;;;;;;5057858;28;20031;-77
2023/07/01 02:58:09;;;;;;;16.30;7.93;;;;;;;;;;5057205;28;20052;-77
2023/07/01 03:00:35;;;;;;;22.95;8.38;;;;;;;;;;5075230;28;20408;-77
2023/07/01 03:03:07;;;;;;;17.48;7.70;;;;;;;;;;5073928;28;20060;-77
2023/07/01 03:05:36;;;;;;;19.00;7.55;;;;;;;;;;5073546;28;20068;-78
2023/07/01 03:08:01;;;;;;;20.52;7.32;;;;;;;;;;5074939;28;20028;-78
2023/07/01 03:10:27;;;;;;;20.60;7.65;;;;;;;;;;5074602;28;20029;-78
2023/07/01 03:12:53;;;;;;;24.02;8.85;;;;;;;;;;5074205;28;20033;-77
2023/07/01 03:15:19;;;;;;;15.82;7.65;;;;;;;;;;5073363;28;20487;-78
2023/07/01 03:17:47;;;;;;;20.27;7.80;;;;;;;;;;5074601;28;20024;-77
2023/07/01 03:20:22;;;;;;;18.98;8.10;;;;;;;;;;5074208;28;20035;-74
2023/07/01 03:22:56;;;;;;;16.30;7.32;;;;;;;;;;5056217;28;20483;-76
2023/07/01 03:25:21;;;;;;;15.48;7.32;;;;;;;;;;5055773;28;20483;-77
2023/07/01 03:27:47;;;;;;;20.20;8.75;;;;;;;;;;5054796;28;20108;-77
2023/07/01 03:30:16;;;;;;;20.67;7.78;;;;;;;;;;5072364;28;20033;-76
2023/07/01 03:32:44;;;;;;;22.23;8.15;;;;;;;;;;5071680;28;20035;-77
2023/07/01 03:35:10;;;;;;;16.00;8.27;;;;;;;;;;5073320;28;20031;-77
2023/07/01 03:37:36;;;;;;;22.30;7.55;;;;;;;;;;5073660;28;20027;-75
2023/07/01 03:40:03;;;;;;;20.00;8.80;;;;;;;;;;5073447;28;20111;-76
2023/07/01 03:42:28;;;;;;;16.63;7.88;;;;;;;;;;5073022;28;20115;-77
2023/07/01 03:44:54;;;;;;;17.13;7.82;;;;;;;;;;5073904;28;20107;-74
2023/07/01 03:47:20;;;;;;;19.33;9.45;;;;;;;;;;5074128;28;20373;-74
2023/07/01 03:49:45;;;;;;;20.13;7.75;;;;;;;;;;5072287;28;20389;-78
2023/07/01 03:52:11;;;;;;;16.00;8.88;;;;;;;;;;5072814;28;20442;-77
2023/07/01 03:54:36;;;;;;;19.17;7.75;;;;;;;;;;5073675;28;20499;-77
2023/07/01 03:57:02;;;;;;;15.13;7.35;;;;;;;;;;5074678;28;20036;-77
2023/07/01 03:59:27;;;;;;;14.75;7.68;;;;;;;;;;5073324;28;20033;-76
2023/07/01 04:01:53;;;;;;;25.85;7.88;;;;;;;;;;5073925;28;20032;-77
2023/07/01 04:04:19;;;;;;;23.45;7.70;;;;;;;;;;5076989;28;20051;-77
2023/07/01 04:06:44;;;;;;;21.38;8.00;;;;;;;;;;5079443;28;20034;-76
2023/07/01 04:09:12;;;;;;;22.05;7.50;;;;;;;;;;5079896;28;20032;-77
2023/07/01 04:11:40;;;;;;;13.43;7.45;;;;;;;;;;5075687;28;20082;-77
2023/07/01 04:14:06;;;;;;;19.27;8.32;;;;;;;;;;5074390;28;20539;-77
2023/07/01 04:16:32;;;;;;;20.05;7.13;;;;;;;;;;5072454;28;20116;-75
2023/07/01 04:18:59;;;;;;;17.48;7.10;;;;;;;;;;5073598;28;20059;-77
2023/07/01 04:21:25;;;;;;;19.77;7.93;;;;;;;;;;5071818;28;20474;-77
2023/07/01 04:23:50;;;;;;;25.17;8.35;;;;;;;;;;5071430;28;20104;-78
2023/07/01 04:26:16;;;;;;;14.93;6.80;;;;;;;;;;5071894;28;20503;-77
2023/07/01 04:28:42;;;;;;;14.18;6.60;;;;;;;;;;5073268;28;20028;-77
2023/07/01 04:31:07;;;;;;;15.35;7.00;;;;;;;;;;5073726;28;20025;-77
2023/07/01 04:33:33;;;;;;;13.40;7.00;;;;;;;;;;5039078;28;20024;-78
2023/07/01 04:35:58;;;;;;;20.08;7.53;;;;;;;;;;5074080;28;20025;-78
2023/07/01 04:38:24;;;;;;;17.05;6.97;;;;;;;;;;5072729;28;20039;-77
2023/07/01 04:40:49;;;;;;;26.67;7.40;;;;;;;;;;5072872;28;20036;-78
2023/07/01 04:43:16;;;;;;;14.48;6.43;;;;;;;;;;5073104;28;20127;-77
2023/07/01 04:45:42;;;;;;;15.82;6.50;;;;;;;;;;5055470;28;20077;-76
2023/07/01 04:48:07;;;;;;;17.17;6.85;;;;;;;;;;5073124;28;20032;-77
2023/07/01 04:50:33;;;;;;;16.70;6.30;;;;;;;;;;5054685;28;20025;-76
2023/07/01 04:52:58;;;;;;;13.23;6.22;;;;;;;;;;5072731;28;20395;-76
2023/07/01 04:55:24;;;;;;;10.73;6.05;;;;;;;;;;5071390;28;20020;-76
2023/07/01 04:57:51;;;;;;;10.65;6.03;;;;;;;;;;5055045;28;20108;-77
2023/07/01 05:00:17;;;;;;;15.75;5.97;;;;;;;;;;5070981;28;20124;-77
2023/07/01 05:02:43;;;;;;;13.80;6.35;;;;;;;;;;5070604;28;20032;-77
2023/07/01 05:05:09;;;;;;;13.18;5.78;;;;;;;;;;5072713;28;20051;-78
2023/07/01 05:07:34;;;;;;;21.30;6.20;;;;;;;;;;5072608;28;20032;-77
2023/07/01 05:10:00;;;;;;;20.65;5.78;;;;;;;;;;5071216;28;20025;-77
2023/07/01 05:12:26;;;;;;;15.50;5.43;;;;;;;;;;5070596;28;20036;-77
2023/07/01 05:14:52;;;;;;;19.45;5.45;;;;;;;;;;5037997;28;20031;-77
2023/07/01 05:17:18;;;;;;;19.60;5.13;;;;;;;;;;5071110;28;20108;-77
2023/07/01 05:19:43;;;;;;;15.73;6.35;;;;;;;;;;5071763;28;20060;-77
2023/07/01 05:22:09;;;;;;;19.02;4.95;;;;;;;;;;5054034;28;20032;-75
2023/07/01 05:24:34;;;;;;;13.65;5.10;;;;;;;;;;5070670;28;20545;-75
2023/07/01 05:27:00;;;;;;;16.65;4.88;;;;;;;;;;5070692;28;20549;-77
2023/07/01 05:29:26;;;;;;;10.30;4.47;;;;;;;;;;5069646;28;20041;-77
2023/07/01 05:31:52;;;;;;;14.57;5.07;;;;;;;;;;5071865;28;20056;-78
2023/07/01 05:34:18;;;;;;;12.65;4.47;;;;;;;;;;5071755;28;20430;-77
2023/07/01 05:36:43;;;;;;;12.73;4.40;;;;;;;;;;5069385;28;20036;-75
2023/07/01 05:39:09;;;;;;;14.18;4.00;;;;;;;;;;5070132;28;20029;-77
2023/07/01 05:41:35;;;;;;;11.60;4.20;;;;;;;;;;5071143;28;20116;-76
2023/07/01 05:44:00;;;;;;;7.93;3.53;;;;;;;;;;5071214;28;20490;-77
2023/07/01 05:46:26;;;;;;;14.95;4.13;;;;;;;;;;5037664;28;20036;-77
2023/07/01 05:48:52;;;;;;;10.45;4.10;;;;;;;;;;5053481;28;20055;-77
2023/07/01 05:51:17;;;;;;;8.57;3.35;;;;;;;;;;5072594;28;20028;-77
2023/07/01 05:53:44;;;;;;;8.40;3.75;;;;;;;;;;5074872;28;20386;-78
2023/07/01 05:56:10;;;;;;;10.27;3.38;;;;;;;;;;5075042;28;20107;-77
2023/07/01 05:58:35;;;;;;;8.40;3.50;;;;;;;;;;5074938;28;20499;-77
2023/07/01 06:01:01;;;;;;;8.90;3.45;;;;;;;;;;5074807;28;20056;-77
2023/07/01 06:03:26;;;;;;;6.95;2.67;;;;;;;;;;5084745;22;20496;-83
2023/07/01 06:05:51;;;;;;;11.02;3.33;;;;;;;;;;5074590;28;20033;-83
2023/07/01 06:08:17;;;;;;;14.13;3.97;;;;;;;;;;5076606;28;20070;-83
2023/07/01 06:10:42;;;;;;;7.43;3.10;;;;;;;;;;5074904;28;20476;-83
2023/07/01 06:13:08;;;;;;;7.65;3.30;;;;;;;;;;5077440;28;20017;-84
2023/07/01 06:15:34;;;;;;;8.85;3.45;;;;;;;;;;5070236;28;20036;-80
2023/07/01 06:17:59;;;;;;;7.38;2.90;;;;;;;;;;5096255;28;20156;-81
2023/07/01 06:20:25;;;;;;;6.65;2.38;;;;;;;;;;5080334;28;20111;-82
2023/07/01 06:22:50;;;;;;;10.18;3.25;;;;;;;;;;5081247;28;20714;-82
2023/07/01 06:25:16;;;;;;;6.65;2.83;;;;;;;;;;5081813;28;20036;-83
2023/07/01 06:27:41;;;;;;;10.05;2.60;;;;;;;;;;5080842;28;20112;-83
2023/07/01 06:30:07;;;;;;;14.35;3.13;;;;;;;;;;5082537;28;20100;-82
2023/07/01 06:32:32;;;;;;;6.32;2.97;;;;;;;;;;5060254;28;20028;-81
2023/07/01 06:34:58;;;;;;;9.73;2.65;;;;;;;;;;5075406;28;20024;-84
2023/07/01 06:37:23;;;;;;;10.48;3.03;;;;;;;;;;5076013;28;20028;-82
2023/07/01 06:39:49;;;;;;;4.05;2.10;;;;;;;;;;5078840;28;20036;-83
2023/07/01 06:42:14;;;;;;;5.18;2.20;;;;;;;;;;5092180;28;20341;-83
2023/07/01 06:44:40;;;;;;;9.32;2.40;;;;;;;;;;5050558;28;20056;-81
2023/07/01 06:47:05;;;;;;;4.75;1.80;;;;;;;;;;5090644;28;20035;-84
2023/07/01 06:49:34;;;;;;;5.15;2.00;;;;;;;;;;5080894;28;20028;-80
2023/07/01 06:52:00;;;;;;;;;;;;;;;;;;5079896;28;20037;-82
2023/07/01 06:54:25;;;;;;;6.40;2.17;;;;;;;;;;5075018;28;19908;-83
2023/07/01 06:56:51;;;;;;;3.65;1.65;;;;;;;;;;5073463;28;20036;-84
2023/07/01 06:59:16;;;;;;;7.22;2.03;;;;;;;;;;5057362;28;20102;-84
2023/07/01 07:01:42;;;;;;;4.55;1.70;;;;;;;;;;5072360;28;20059;-83
2023/07/01 07:04:07;;;;;;;3.95;1.52;;;;;;;;;;5072797;28;20034;-84
2023/07/01 07:06:33;;;;;;;7.47;1.50;;;;;;;;;;5057330;28;20484;-82
2023/07/01 07:08:59;;;;;;;4.95;1.70;;;;;;;;;;5057321;28;20086;-83
2023/07/01 07:11:24;;;;;;;3.75;1.50;;;;;;;;;;5056950;28;20029;-82
2023/07/01 07:13:50;;;;;;;4.32;1.67;;;;;;;;;;5057054;28;20365;-83
2023/07/01 07:16:15;;;;;;;7.45;1.83;;;;;;;;;;5075091;28;20391;-83
2023/07/01 07:18:41;;;;;;;6.40;1.75;;;;;;;;;;5074377;28;20035;-83
2023/07/01 07:21:06;;;;;;;9.48;1.90;;;;;;;;;;5072547;28;20574;-83
2023/07/01 07:23:32;;;;;;;3.28;1.55;;;;;;;;;;5072852;28;20024;-85
2023/07/01 07:25:57;;;;;;;5.82;1.65;;;;;;;;;;5073851;28;20028;-83
2023/07/01 07:28:23;;;;;;;4.43;1.85;;;;;;;;;;5073872;28;20484;-82
2023/07/01 07:30:49;;;;;;;8.23;2.38;;;;;;;;;;5072189;28;20024;-83
2023/07/01 07:33:14;;;;;;;8.60;2.20;;;;;;;;;;5055936;28;20021;-81
2023/07/01 07:35:40;;;;;;;5.32;2.17;;;;;;;;;;5073295;28;20074;-83
2023/07/01 07:38:05;;;;;;;6.95;2.10;;;;;;;;;;5073328;28;20099;-84
2023/07/01 07:40:31;;;;;;;5.25;2.20;;;;;;;;;;5073037;28;20033;-83
2023/07/01 07:42:57;;;;;;;8.65;2.42;;;;;;;;;;5073773;28;20071;-84
2023/07/01 07:45:22;;;;;;;4.68;2.40;;;;;;;;;;5075653;28;20054;-83
2023/07/01 07:47:48;;;;;;;12.73;2.55;;;;;;;;;;5061103;28;20499;-82
2023/07/01 07:50:14;;;;;;;4.07;2.15;;;;;;;;;;5060491;28;20037;-81
2023/07/01 07:52:39;;;;;;;6.03;2.05;;;;;;;;;;5058754;28;20024;-83
2023/07/01 07:55:05;;;;;;;6.00;2.33;;;;;;;;;;5073605;28;20028;-85
2023/07/01 07:57:31;;;;;;;14.52;2.35;;;;;;;;;;5073822;28;20031;-82
2023/07/01 07:59:56;;;;;;;6.07;2.10;;;;;;;;;;5071874;28;20031;-81
2023/07/01 08:02:22;;;;;;;8.82;2.33;;;;;;;;;;5073053;28;20055;-82
2023/07/01 08:04:47;;;;;;;6.43;2.35;;;;;;;;;;5073229;28;20496;-83
2023/07/01 08:07:13;;;;;;;8.95;3.30;;;;;;;;;;5056331;28;20105;-82
2023/07/01 08:09:39;;;;;;;7.70;2.40;;;;;;;;;;5071789;28;20033;-83
2023/07/01 08:12:04;;;;;;;9.52;2.72;;;;;;;;;;5054813;28;20120;-83
2023/07/01 08:14:30;;;;;;;8.57;2.20;;;;;;;;;;5055485;28;20035;-83
2023/07/01 08:16:58;;;;;;;7.28;2.50;;;;;;;;;;5072131;28;20020;-84
2023/07/01 08:19:23;;;;;;;7.60;2.25;;;;;;;;;;5073234;28;20492;-83
2023/07/01 08:21:49;;;;;;;4.90;2.13;;;;;;;;;;5055094;28;20039;-84
2023/07/01 08:24:15;;;;;;;5.95;2.13;;;;;;;;;;5072656;28;20039;-84
2023/07/01 08:26:41;;;;;;;6.53;2.25;;;;;;;;;;5055702;28;20029;-83
2023/07/01 08:29:08;;;;;;;7.47;2.33;;;;;;;;;;5054850;28;20121;-83
2023/07/01 08:31:34;;;;;;;7.72;2.17;;;;;;;;;;5055024;28;20052;-84
2023/07/01 08:33:59;;;;;;;5.90;2.00;;;;;;;;;;5072139;28;20040;-83
2023/07/01 08:36:25;;;;;;;5.65;2.38;;;;;;;;;;5073014;28;20103;-83
2023/07/01 08:38:50;;;;;;;8.30;1.88;;;;;;;;;;5073726;28;20055;-83
2023/07/01 08:41:17;;;;;;;5.72;2.00;;;;;;;;;;5072534;28;20579;-83
2023/07/01 08:43:47;;;;;;;5.40;2.15;;;;;;;;;;5074450;28;20059;-81
2023/07/01 08:46:15;;;;;;;3.88;2.13;;;;;;;;;;5077930;28;20025;-82
2023/07/01 08:48:41;;;;;;;6.65;2.00;;;;;;;;;;5076832;28;20104;-82
2023/07/01 08:51:20;;;;;;;4.88;1.77;;;;;;;;;;5077705;28;20025;-83
2023/07/01 08:53:46;;;;;;;5.53;2.00;;;;;;;;;;5062172;28;20047;-83
2023/07/01 08:56:21;;;;;;;3.50;1.80;;;;;;;;;;5079172;28;20024;-82
2023/07/01 08:58:47;;;;;;;4.68;2.05;;;;;;;;;;5076883;28;20040;-83
2023/07/01 09:01:13;;;;;;;8.73;1.63;;;;;;;;;;5077657;28;20032;-80
2023/07/01 09:03:40;;;;;;;4.00;2.00;;;;;;;;;;5077759;28;20024;-82
2023/07/01 09:06:06;;;;;;;9.50;1.88;;;;;;;;;;5077905;28;20054;-81
2023/07/01 09:08:33;;;;;;;5.30;1.98;;;;;;;;;;5075994;28;20056;-80
2023/07/01 09:10:58;;;;;;;6.05;1.70;;;;;;;;;;5075630;28;20083;-83
2023/07/01 09:13:25;;;;;;;3.70;1.48;;;;;;;;;;5077710;28;20028;-81
2023/07/01 09:15:51;;;;;;;4.25;1.50;;;;;;;;;;5076873;28;20044;-84
2023/07/01 09:18:20;;;;;;;4.45;1.95;;;;;;;;;;5079953;28;20016;-83
2023/07/01 09:20:47;;;;;;;6.20;1.73;;;;;;;;;;5075233;28;20036;-83
2023/07/01 09:23:24;;;;;;;7.97;1.88;;;;;;;;;;5086686;28;20368;-84
2023/07/01 09:25:49;;;;;;;5.38;1.85;;;;;;;;;;5097612;28;20021;-81
2023/07/01 09:28:28;;;;;;;6.25;1.85;;;;;;;;;;5097999;28;20040;-83
2023/07/01 09:30:54;;;;;;;5.53;1.90;;;;;;;;;;5099559;28;20048;-82
2023/07/01 09:33:20;;;;;;;6.18;1.83;;;;;;;;;;5095804;28;20033;-82
2023/07/01 09:35:46;;;;;;;11.70;2.08;;;;;;;;;;5079111;28;20051;-82
2023/07/01 09:38:14;;;;;;;5.95;1.90;;;;;;;;;;5066948;28;20434;-85
2023/07/01 09:40:40;;;;;;;5.43;1.80;;;;;;;;;;5080881;28;20032;-84
2023/07/01 09:43:05;;;;;;;6.22;1.52;;;;;;;;;;5061108;28;20024;-83
2023/07/01 09:45:31;;;;;;;3.85;1.70;;;;;;;;;;5079227;28;20048;-83
2023/07/01 09:47:57;;;;;;;9.95;2.13;;;;;;;;;;5044962;28;20582;-83
2023/07/01 09:50:23;;;;;;;4.30;1.50;;;;;;;;;;5075939;28;20029;-83
2023/07/01 09:52:50;;;;;;;4.47;1.52;;;;;;;;;;5076987;28;20063;-84
2023/07/01 09:55:16;;;;;;;4.88;1.95;;;;;;;;;;5060039;28;20477;-82
2023/07/01 09:57:42;;;;;;;4.15;1.67;;;;;;;;;;5059720;28;20029;-85
2023/07/01 10:00:11;;;;;;;6.20;1.88;;;;;;;;;;5059593;28;20039;-83
2023/07/01 10:02:37;;;;;;;6.13;1.98;;;;;;;;;;5075860;28;20028;-83
2023/07/01 10:05:03;;;;;;;8.55;1.73;;;;;;;;;;5059240;28;20381;-83
2023/07/01 10:07:29;;;;;;;4.80;2.17;;;;;;;;;;5076613;28;20035;-83
2023/07/01 10:09:55;;;;;;;7.18;1.90;;;;;;;;;;5075241;28;20400;-82
2023/07/01 10:12:20;;;;;;;5.95;2.33;;;;;;;;;;5075993;28;20051;-83
2023/07/01 10:14:51;;;;;;;3.63;1.98;;;;;;;;;;5075665;28;20028;-84
2023/07/01 10:17:17;;;;;;;7.97;1.95;;;;;;;;;;5058913;28;20519;-82
2023/07/01 10:19:46;;;;;;;6.55;2.05;;;;;;;;;;5058411;28;20047;-82
2023/07/01 10:22:18;;;;;;;4.88;2.20;;;;;;;;;;5074597;28;20028;-82
2023/07/01 10:24:44;;;;;;;3.67;1.75;;;;;;;;;;5076340;28;20039;-83
2023/07/01 10:27:10;;;;;;;4.97;1.90;;;;;;;;;;5042242;28;20127;-83
2023/07/01 10:29:36;;;;;;;4.28;1.98;;;;;;;;;;5074620;28;20032;-82
2023/07/01 10:32:08;;;;;;;6.28;1.98;;;;;;;;;;5074627;28;20075;-83
2023/07/01 10:35:06;;;;;;;4.30;1.90;;;;;;;;;;5074420;28;20052;-84
2023/07/01 10:37:32;;;;;;;4.55;2.10;;;;;;;;;;5041414;28;20039;-82
2023/07/01 10:39:59;;;;;;;4.78;2.03;;;;;;;;;;5057863;28;20029;-83
2023/07/01 10:42:31;;;;;;;5.05;1.98;;;;;;;;;;5073541;28;20426;-84
2023/07/01 10:45:12;;;;;;;3.95;1.83;;;;;;;;;;5075536;28;20040;-83
2023/07/01 10:47:49;;;;;;;6.68;1.98;;;;;;;;;;5075027;28;20032;-83
2023/07/01 10:50:16;;;;;;;5.80;1.70;;;;;;;;;;5040488;28;20028;-83
2023/07/01 10:52:59;;;;;;;3.58;1.77;;;;;;;;;;5074888;28;20036;-83
2023/07/01 10:55:35;;;;;;;5.00;1.58;;;;;;;;;;5057636;28;20117;-84
2023/07/01 10:58:16;;;;;;;4.68;2.20;;;;;;;;;;5074681;28;20104;-83
2023/07/01 11:00:42;;;;;;;4.57;1.95;;;;;;;;;;5074701;28;20132;-83
2023/07/01 11:03:26;;;;;;;6.25;1.98;;;;;;;;;;5074498;28;20448;-83
2023/07/01 11:05:59;;;;;;;4.35;2.13;;;;;;;;;;5074820;28;20032;-83
2023/07/01 11:08:25;;;;;;;4.15;2.10;;;;;;;;;;5073303;28;20036;-84
2023/07/01 11:10:51;;;;;;;8.23;2.40;;;;;;;;;;5073489;28;20063;-83
2023/07/01 11:13:17;;;;;;;6.07;1.95;;;;;;;;;;5073184;28;20060;-83
2023/07/01 11:15:57;;;;;;;3.65;1.92;;;;;;;;;;5057365;28;20052;-84
2023/07/01 11:18:22;;;;;;;4.35;1.83;;;;;;;;;;5075342;28;20099;-83
2023/07/01 11:20:48;;;;;;;4.15;2.08;;;;;;;;;;5073430;28;20055;-83
2023/07/01 11:23:14;;;;;;;4.60;2.17;;;;;;;;;;5073340;28;20492;-82
2023/07/01 11:25:40;;;;;;;4.40;2.67;;;;;;;;;;5074534;28;20227;-82
2023/07/01 11:28:05;;;;;;;6.13;2.15;;;;;;;;;;5074822;28;20031;-83
2023/07/01 11:30:31;;;;;;;10.10;2.25;;;;;;;;;;5056559;28;20104;-82
2023/07/01 11:33:09;;;;;;;6.47;1.98;;;;;;;;;;5073658;28;20035;-83
2023/07/01 11:35:55;;;;;;;10.13;2.38;;;;;;;;;;5074183;28;20098;-84
2023/07/01 11:38:27;;;;;;;6.25;2.15;;;;;;;;;;5074531;28;20074;-83
2023/07/01 11:40:53;;;;;;;5.03;2.20;;;;;;;;;;5073958;28;20036;-82
2023/07/01 11:43:21;;;;;;;5.22;2.42;;;;;;;;;;5058563;28;20075;-82
2023/07/01 11:45:48;;;;;;;5.57;1.98;;;;;;;;;;5074255;28;20035;-82
2023/07/01 11:48:14;;;;;;;10.25;2.38;;;;;;;;;;5056943;28;20032;-82
2023/07/01 11:50:52;;;;;;;6.03;2.40;;;;;;;;;;5057488;28;20207;-84
2023/07/01 11:53:17;;;;;;;4.15;1.73;;;;;;;;;;5040993;28;20040;-82
2023/07/01 11:55:43;;;;;;;4.07;1.80;;;;;;;;;;5075162;28;20029;-83
2023/07/01 11:58:24;;;;;;;3.92;2.17;;;;;;;;;;5076951;28;20457;-82
2023/07/01 12:00:49;;;;;;;5.47;2.25;;;;;;;;;;5078017;28;20032;-83
2023/07/01 12:03:15;;;;;;;9.75;2.40;;;;;;;;;;5081494;28;20185;-82
2023/07/01 12:05:44;;;;;;;3.58;2.33;;;;;;;;;;5093739;28;20043;-81
2023/07/01 12:08:09;;;;;;;6.63;2.67;;;;;;;;;;5091263;28;20140;-82
2023/07/01 12:10:35;;;;;;;4.13;2.35;;;;;;;;;;5090347;28;20032;-82
2023/07/01 12:13:01;;;;;;;7.10;2.25;;;;;;;;;;5086282;28;20043;-82
2023/07/01 12:15:27;;;;;;;5.45;2.20;;;;;;;;;;5057739;28;20020;-81
2023/07/01 12:17:53;;;;;;;9.48;2.40;;;;;;;;;;5062999;28;20476;-82
2023/07/01 12:20:20;;;;;;;4.95;2.17;;;;;;;;;;5075928;28;20028;-83
2023/07/01 12:22:46;;;;;;;6.88;2.15;;;;;;;;;;5074070;28;20028;-82
2023/07/01 12:25:11;;;;;;;5.47;2.30;;;;;;;;;;5058675;28;20590;-83
2023/07/01 12:27:37;;;;;;;6.97;2.22;;;;;;;;;;5043424;28;20576;-82
2023/07/01 12:30:04;;;;;;;6.45;2.15;;;;;;;;;;5064886;28;20029;-80
2023/07/01 12:32:30;;;;;;;6.25;2.25;;;;;;;;;;5080431;28;20078;-82
2023/07/01 12:34:56;;;;;;;10.63;2.20;;;;;;;;;;5073810;28;20032;-80
2023/07/01 12:37:22;;;;;;;5.63;2.17;;;;;;;;;;5057596;28;20102;-83
2023/07/01 12:39:52;;;;;;;3.78;2.08;;;;;;;;;;5057074;28;20403;-83
2023/07/01 12:42:17;;;;;;;5.32;2.40;;;;;;;;;;5056616;28;20487;-82
2023/07/01 12:44:44;;;;;;;4.97;2.30;;;;;;;;;;5072212;28;20033;-83
2023/07/01 12:47:10;;;;;;;7.30;2.05;;;;;;;;;;5072791;28;20100;-83
2023/07/01 12:49:39;;;;;;;7.03;2.45;;;;;;;;;;5072385;28;20491;-83
2023/07/01 12:52:05;;;;;;;4.95;2.15;;;;;;;;;;5072261;28;20028;-82
2023/07/01 12:54:31;;;;;;;3.95;2.20;;;;;;;;;;5074278;28;20436;-82
2023/07/01 12:56:57;;;;;;;7.20;2.00;;;;;;;;;;5075570;28;20033;-82
2023/07/01 12:59:23;;;;;;;4.68;2.38;;;;;;;;;;5078308;28;20025;-83
2023/07/01 13:01:48;;;;;;;7.70;2.10;;;;;;;;;;5058392;28;20036;-83
2023/07/01 13:04:16;;;;;;;5.90;2.03;;;;;;;;;;5076402;28;20479;-84
2023/07/01 13:06:42;;;;;;;7.07;2.25;;;;;;;;;;5076924;28;20040;-82
2023/07/01 13:09:11;;;;;;;5.00;2.40;;;;;;;;;;5077904;28;20050;-85
2023/07/01 13:11:37;;;;;;;7.18;2.20;;;;;;;;;;5076255;28;20031;-84
2023/07/01 13:14:06;;;;;;;5.82;2.20;;;;;;;;;;5061483;28;20035;-83
2023/07/01 13:16:31;;;;;;;;;;;;;;;;;;5061736;28;20074;-83
2023/07/01 13:18:58;;;;;;;10.75;2.55;;;;;;;;;;5076392;28;20330;-83
2023/07/01 13:21:24;;;;;;;9.07;2.45;;;;;;;;;;5076339;28;20024;-83
2023/07/01 13:23:54;;;;;;;5.90;2.30;;;;;;;;;;5060953;28;20028;-83
2023/07/01 13:26:28;;;;;;;5.97;2.33;;;;;;;;;;5079009;28;20025;-83
2023/07/01 13:28:58;;;;;;;7.90;2.25;;;;;;;;;;5060774;28;20056;-83
2023/07/01 13:31:24;;;;;;;7.85;2.20;;;;;;;;;;5043085;28;20426;-83
2023/07/01 13:34:01;;;;;;;7.05;2.40;;;;;;;;;;5060119;28;20055;-84
2023/07/01 13:36:27;;;;;;;4.65;2.20;;;;;;;;;;5078520;28;20021;-83
2023/07/01 13:38:52;;;;;;;5.35;2.50;;;;;;;;;;5076834;28;20043;-83
2023/07/01 13:41:24;;;;;;;8.52;2.30;;;;;;;;;;5078556;28;20032;-83
2023/07/01 13:44:09;;;;;;;4.47;2.38;;;;;;;;;;5076347;28;20025;-82
2023/07/01 13:46:37;;;;;;;8.32;2.53;;;;;;;;;;5075568;28;20070;-86
2023/07/01 13:49:02;;;;;;;13.05;2.35;;;;;;;;;;5075245;28;20036;-83
2023/07/01 13:51:32;;;;;;;7.13;2.58;;;;;;;;;;5076286;28;20207;-85
2023/07/01 13:53:58;;;;;;;5.10;2.33;;;;;;;;;;5059215;28;20052;-83
2023/07/01 13:56:24;;;;;;;4.95;2.40;;;;;;;;;;5061008;28;20066;-83
2023/07/01 13:58:52;;;;;;;5.28;2.30;;;;;;;;;;5077587;28;20020;-84
2023/07/01 14:01:18;;;;;;;6.72;2.47;;;;;;;;;;5044513;28;20025;-83
2023/07/01 14:03:45;;;;;;;8.45;2.40;;;;;;;;;;5067935;28;20033;-83
2023/07/01 14:06:13;;;;;;;5.53;2.90;;;;;;;;;;5067668;28;20066;-83
2023/07/01 14:08:42;;;;;;;6.05;2.67;;;;;;;;;;5048183;28;20476;-84
2023/07/01 14:11:09;;;;;;;6.32;2.80;;;;;;;;;;5058259;28;20032;-83
2023/07/01 14:13:35;;;;;;;7.47;2.60;;;;;;;;;;5076853;28;20028;-83
2023/07/01 14:16:01;;;;;;;7.00;2.90;;;;;;;;;;5059369;28;20386;-83
2023/07/01 14:18:27;;;;;;;6.35;2.60;;;;;;;;;;5042187;28;20020;-83
2023/07/01 14:20:54;;;;;;;6.63;2.97;;;;;;;;;;5058245;28;20483;-84
2023/07/01 14:23:24;;;;;;;4.93;2.70;;;;;;;;;;5076776;28;20056;-81
2023/07/01 14:25:51;;;;;;;17.98;3.42;;;;;;;;;;5043183;28;20024;-83
2023/07/01 14:28:17;;;;;;;6.40;3.22;;;;;;;;;;5059674;28;20426;-83
2023/07/01 14:30:45;;;;;;;6.60;3.15;;;;;;;;;;5062595;28;20032;-82
2023/07/01 14:33:11;;;;;;;6.50;2.65;;;;;;;;;;5080209;28;20055;-83
2023/07/01 14:35:36;;;;;;;6.50;2.70;;;;;;;;;;5063421;28;20033;-84
2023/07/01 14:38:04;;;;;;;5.77;2.50;;;;;;;;;;5050277;28;20032;-82